Time;durP1;ratioP1;P1;durP2;ratioP2;P2;SDS_P1;SDS_P2;PMS_P1;PMS_P2;Temp;Humidity;BMP_temperature;BMP_pressure;BME280_temperature;BME280_humidity;BME280_pressure;Samples;Min_cycle;Max_cycle;Signal;HPM_P1;HPM_P2
2021/01/22 00:01:16;;;;;;;2.00;0.70;;;6.30;99.90;;;;;;5030942;28;20436;-85
2021/01/22 00:03:42;;;;;;;4.13;1.10;;;6.30;99.90;;;;;;5048189;28;20603;-84
2021/01/22 00:06:07;;;;;;;2.67;0.93;;;6.30;99.90;;;;;;5046168;28;20470;-85
2021/01/22 00:08:33;;;;;;;2.20;1.20;;;6.30;99.90;;;;;;5055437;28;20199;-85
2021/01/22 00:10:59;;;;;;;1.43;0.40;;;6.30;99.90;;;;;;5046422;28;20269;-85
2021/01/22 00:13:24;;;;;;;1.30;0.57;;;6.30;99.90;;;;;;5052917;28;20177;-86
2021/01/22 00:15:50;;;;;;;3.53;1.27;;;6.40;99.90;;;;;;5027106;28;20673;-84
2021/01/22 00:18:16;;;;;;;1.87;1.10;;;6.30;99.90;;;;;;5044028;28;20750;-84
2021/01/22 00:20:41;;;;;;;2.67;0.70;;;6.30;99.90;;;;;;5044918;28;20416;-84
2021/01/22 00:23:07;;;;;;;3.60;0.50;;;6.20;99.90;;;;;;5046236;28;20842;-84
2021/01/22 00:25:32;;;;;;;2.63;0.97;;;6.20;99.90;;;;;;5045735;28;20209;-84
2021/01/22 00:27:58;;;;;;;5.30;1.10;;;6.20;99.90;;;;;;5044722;28;20166;-85
2021/01/22 00:30:24;;;;;;;2.17;0.67;;;6.20;99.90;;;;;;5043896;28;20264;-85
2021/01/22 00:32:49;;;;;;;2.20;0.57;;;6.20;99.90;;;;;;5045676;28;20168;-85
2021/01/22 00:35:15;;;;;;;0.77;0.20;;;6.30;99.90;;;;;;5026644;28;20436;-85
2021/01/22 00:37:41;;;;;;;3.33;0.80;;;6.30;99.90;;;;;;5026515;28;20288;-84
2021/01/22 00:40:07;;;;;;;3.30;0.80;;;6.40;99.90;;;;;;5044488;28;20177;-84
2021/01/22 00:42:33;;;;;;;4.40;1.00;;;6.40;99.90;;;;;;5043714;28;20172;-84
2021/01/22 00:44:59;;;;;;;1.83;0.47;;;6.40;99.90;;;;;;5044936;28;20416;-84
2021/01/22 00:47:25;;;;;;;1.50;0.77;;;6.40;99.90;;;;;;5029141;28;20469;-85
2021/01/22 00:49:51;;;;;;;2.33;0.70;;;6.30;99.90;;;;;;5046075;28;20416;-90
2021/01/22 00:52:18;;;;;;;5.53;0.83;;;6.40;99.90;;;;;;5045955;28;20178;-85
2021/01/22 00:54:44;;;;;;;5.30;1.30;;;6.50;99.90;;;;;;5036046;28;20206;-90
2021/01/22 00:57:09;;;;;;;3.70;0.73;;;6.50;99.90;;;;;;5028794;28;20958;-85
2021/01/22 00:59:35;;;;;;;1.47;0.20;;;6.60;99.90;;;;;;5025703;28;20254;-84
2021/01/22 01:02:01;;;;;;;1.23;0.50;;;6.50;99.90;;;;;;5028188;28;20550;-84
2021/01/22 01:04:26;;;;;;;0.97;0.40;;;6.60;99.90;;;;;;5026647;28;20165;-85
2021/01/22 01:06:52;;;;;;;8.57;2.10;;;6.60;99.90;;;;;;5028389;28;20289;-85
2021/01/22 01:09:17;;;;;;;1.87;0.60;;;6.70;99.90;;;;;;5028055;28;20218;-85
2021/01/22 01:11:44;;;;;;;1.13;0.33;;;6.70;99.90;;;;;;5037684;28;20229;-85
2021/01/22 01:14:09;;;;;;;0.83;0.60;;;6.70;99.90;;;;;;5035444;28;20186;-85
2021/01/22 01:16:35;;;;;;;4.37;0.90;;;6.80;99.90;;;;;;5032595;28;20459;-86
2021/01/22 01:19:00;;;;;;;0.90;0.30;;;6.70;99.90;;;;;;5050844;28;20185;-86
2021/01/22 01:21:27;;;;;;;2.87;0.50;;;6.90;99.90;;;;;;5034401;28;20272;-85
2021/01/22 01:23:53;;;;;;;3.27;0.90;;;6.90;99.90;;;;;;5034003;28;20174;-84
2021/01/22 01:26:20;;;;;;;4.10;0.40;;;7.10;99.90;;;;;;5034949;28;20464;-84
2021/01/22 01:28:46;;;;;;;0.77;0.27;;;7.20;99.90;;;;;;5053803;28;20645;-85
2021/01/22 01:31:11;;;;;;;1.00;0.43;;;7.40;99.90;;;;;;5054685;28;20408;-84
2021/01/22 01:33:37;;;;;;;3.03;0.77;;;7.50;99.90;;;;;;5053118;28;20188;-85
2021/01/22 01:36:03;;;;;;;1.87;0.30;;;7.70;99.90;;;;;;5053341;28;20174;-85
2021/01/22 01:38:28;;;;;;;1.47;0.30;;;7.80;99.90;;;;;;5054507;28;20227;-85
2021/01/22 01:40:54;;;;;;;4.60;0.50;;;8.00;99.90;;;;;;5054051;28;20411;-86
2021/01/22 01:43:20;;;;;;;0.83;0.30;;;7.90;99.90;;;;;;5054294;28;20180;-85
2021/01/22 01:45:45;;;;;;;1.50;0.40;;;8.00;99.90;;;;;;5054085;28;20305;-84
2021/01/22 01:48:11;;;;;;;3.97;0.30;;;8.00;99.90;;;;;;5054041;28;20248;-84
2021/01/22 01:50:38;;;;;;;1.30;0.40;;;8.20;99.90;;;;;;5054150;28;20170;-85
2021/01/22 01:53:05;;;;;;;2.00;0.40;;;8.20;99.90;;;;;;5054134;28;20181;-85
2021/01/22 01:55:32;;;;;;;2.37;0.20;;;8.20;99.90;;;;;;5053559;28;20423;-84
2021/01/22 01:58:01;;;;;;;1.30;0.30;;;8.20;99.90;;;;;;5053925;28;20404;-84
2021/01/22 02:00:26;;;;;;;1.70;0.30;;;8.30;99.90;;;;;;5053830;28;20507;-85
2021/01/22 02:02:52;;;;;;;1.10;0.30;;;8.20;99.90;;;;;;5036021;28;20822;-84
2021/01/22 02:05:18;;;;;;;1.23;0.47;;;8.20;99.90;;;;;;5052350;28;20420;-84
2021/01/22 02:07:44;;;;;;;1.63;0.40;;;8.20;99.90;;;;;;5052410;28;20185;-86
2021/01/22 02:10:10;;;;;;;0.70;0.30;;;8.20;99.90;;;;;;5051982;28;20482;-86
2021/01/22 02:12:37;;;;;;;2.10;0.30;;;8.30;99.90;;;;;;5052387;28;20227;-85
2021/01/22 02:15:05;;;;;;;1.90;0.60;;;8.30;99.90;;;;;;5035791;28;20498;-84
2021/01/22 02:17:32;;;;;;;1.10;0.20;;;8.30;99.90;;;;;;5052266;28;20956;-85
2021/01/22 02:20:23;;;;;;;1.40;0.30;;;8.30;99.90;;;;;;5052314;28;20429;-85
2021/01/22 02:22:50;;;;;;;1.40;0.43;;;8.40;99.90;;;;;;5052525;28;20972;-86
2021/01/22 02:25:21;;;;;;;2.13;0.20;;;8.50;99.90;;;;;;5053616;28;20439;-85
2021/01/22 02:27:47;;;;;;;1.10;0.50;;;8.50;99.90;;;;;;5052686;28;20937;-85
2021/01/22 02:30:13;;;;;;;0.47;0.20;;;8.60;99.90;;;;;;5035664;28;20497;-86
2021/01/22 02:32:43;;;;;;;0.70;0.37;;;8.60;99.90;;;;;;5052275;28;20641;-85
2021/01/22 02:35:10;;;;;;;0.90;0.30;;;8.70;99.90;;;;;;5053559;28;20931;-86
2021/01/22 02:37:38;;;;;;;0.90;0.40;;;8.70;99.90;;;;;;5053492;28;20428;-85
2021/01/22 02:40:08;;;;;;;1.37;0.30;;;8.80;99.90;;;;;;5051831;28;20416;-85
2021/01/22 02:42:37;;;;;;;1.37;0.20;;;8.80;99.90;;;;;;5053281;28;20448;-85
2021/01/22 02:45:04;;;;;;;1.47;0.30;;;8.80;99.90;;;;;;5052051;28;20424;-85
2021/01/22 02:47:31;;;;;;;1.10;0.37;;;8.90;99.90;;;;;;5053236;28;20537;-85
2021/01/22 02:49:57;;;;;;;2.07;0.30;;;8.80;99.90;;;;;;5051957;28;20785;-87
2021/01/22 02:52:22;;;;;;;0.80;0.20;;;9.00;99.90;;;;;;5051916;28;20432;-85
2021/01/22 02:54:52;;;;;;;0.87;0.30;;;9.00;99.90;;;;;;5051755;28;20178;-85
2021/01/22 02:57:37;;;;;;;0.63;0.30;;;9.10;99.90;;;;;;5052794;28;20233;-86
2021/01/22 03:00:25;;;;;;;0.93;0.30;;;9.10;99.90;;;;;;5051722;28;20842;-85
2021/01/22 03:03:04;;;;;;;0.50;0.20;;;9.20;99.90;;;;;;5051828;28;20446;-85
2021/01/22 03:05:31;;;;;;;5.50;0.43;;;9.20;99.90;;;;;;5048315;28;20535;-84
2021/01/22 03:08:17;;;;;;;0.47;0.20;;;9.20;99.90;;;;;;5032068;28;20457;-85
2021/01/22 03:10:46;;;;;;;1.20;0.43;;;9.20;99.90;;;;;;5047741;28;20471;-85
2021/01/22 03:13:13;;;;;;;0.80;0.30;;;9.30;99.90;;;;;;5031752;28;20524;-85
2021/01/22 03:15:39;;;;;;;1.10;0.20;;;9.20;99.90;;;;;;5048337;28;20459;-85
2021/01/22 03:18:19;;;;;;;0.73;0.30;;;9.20;99.90;;;;;;5047581;28;20431;-85
2021/01/22 03:20:47;;;;;;;0.93;0.43;;;9.30;99.90;;;;;;5015290;28;20429;-85
2021/01/22 03:23:14;;;;;;;0.40;0.30;;;9.30;99.90;;;;;;5032632;28;20453;-85
2021/01/22 03:25:40;;;;;;;1.43;0.23;;;9.30;99.90;;;;;;5050511;28;20452;-84
2021/01/22 03:28:06;;;;;;;0.97;0.30;;;9.40;99.90;;;;;;5051728;28;20778;-85
2021/01/22 03:30:32;;;;;;;1.00;0.43;;;9.40;99.90;;;;;;5052743;28;20207;-85
2021/01/22 03:32:58;;;;;;;0.50;0.20;;;9.40;99.90;;;;;;5048233;28;20433;-84
2021/01/22 03:35:24;;;;;;;1.40;1.30;;;9.50;99.90;;;;;;5032840;28;20463;-85
2021/01/22 03:37:49;;;;;;;0.80;0.63;;;9.50;99.90;;;;;;5044431;28;20512;-86
2021/01/22 03:40:16;;;;;;;1.37;0.20;;;9.50;99.90;;;;;;5054649;28;20420;-85
2021/01/22 03:42:45;;;;;;;0.50;0.30;;;9.60;99.90;;;;;;5056680;28;20174;-85
2021/01/22 03:45:13;;;;;;;2.53;0.30;;;9.60;99.90;;;;;;5056303;28;20904;-85
2021/01/22 03:47:39;;;;;;;1.27;0.30;;;9.60;99.90;;;;;;5038648;28;20445;-85
2021/01/22 03:50:06;;;;;;;0.40;0.20;;;9.70;99.90;;;;;;5056487;28;20498;-87
2021/01/22 03:52:31;;;;;;;1.43;0.80;;;9.70;99.90;;;;;;5055988;28;20243;-85
2021/01/22 03:54:57;;;;;;;0.37;0.20;;;9.80;99.90;;;;;;5055987;28;20917;-85
2021/01/22 03:57:22;;;;;;;1.70;0.50;;;9.80;99.90;;;;;;5055146;28;20623;-85
2021/01/22 03:59:48;;;;;;;1.13;0.27;;;9.90;99.90;;;;;;5055015;28;20727;-86
2021/01/22 04:02:14;;;;;;;0.80;0.30;;;10.00;99.90;;;;;;5054807;28;20221;-85
2021/01/22 04:04:39;;;;;;;1.27;0.40;;;9.90;99.90;;;;;;5054852;28;20171;-85
2021/01/22 04:07:05;;;;;;;0.97;0.27;;;9.80;99.90;;;;;;5054725;28;20251;-90
2021/01/22 04:09:30;;;;;;;1.30;0.40;;;9.70;99.90;;;;;;5037890;28;20225;-84
2021/01/22 04:11:59;;;;;;;2.60;0.20;;;9.70;99.90;;;;;;5054351;28;20244;-85
2021/01/22 04:14:25;;;;;;;0.97;0.20;;;9.60;99.90;;;;;;5055780;28;20174;-84
2021/01/22 04:16:58;;;;;;;1.10;0.27;;;9.50;99.90;;;;;;5054716;28;20506;-84
2021/01/22 04:19:25;;;;;;;2.30;0.57;;;9.50;99.90;;;;;;5055914;28;20935;-84
2021/01/22 04:21:50;;;;;;;1.23;0.50;;;9.40;99.90;;;;;;5054539;28;20451;-85
2021/01/22 04:24:16;;;;;;;1.57;0.23;;;9.40;99.90;;;;;;5054508;28;20835;-85
2021/01/22 04:26:42;;;;;;;0.60;0.20;;;9.40;99.90;;;;;;5053477;28;20251;-86
2021/01/22 04:29:08;;;;;;;1.93;0.30;;;9.30;99.90;;;;;;5055587;28;20169;-85
2021/01/22 04:31:33;;;;;;;2.00;0.50;;;9.30;99.90;;;;;;5055775;28;20176;-85
2021/01/22 04:33:59;;;;;;;1.03;0.20;;;9.30;99.90;;;;;;5055697;28;20408;-87
2021/01/22 04:36:25;;;;;;;1.10;0.30;;;9.30;99.90;;;;;;5054414;28;20171;-85
2021/01/22 04:38:50;;;;;;;1.90;0.20;;;9.30;99.90;;;;;;5054256;28;20174;-86
2021/01/22 04:41:16;;;;;;;0.70;0.27;;;9.30;99.90;;;;;;5053962;28;20169;-85
2021/01/22 04:43:44;;;;;;;4.23;0.47;;;9.20;99.90;;;;;;5055569;28;20178;-87
2021/01/22 04:46:11;;;;;;;1.43;0.40;;;9.30;99.90;;;;;;5055331;28;20315;-86
2021/01/22 04:48:38;;;;;;;0.60;0.20;;;9.20;99.90;;;;;;5054128;28;20796;-86
2021/01/22 04:51:04;;;;;;;0.50;0.20;;;8.90;99.90;;;;;;5053090;28;20420;-86
2021/01/22 04:53:34;;;;;;;0.97;0.20;;;8.50;99.90;;;;;;5054229;28;20463;-85
2021/01/22 04:56:00;;;;;;;0.83;0.20;;;8.30;99.90;;;;;;5055035;28;20451;-86
2021/01/22 04:58:28;;;;;;;0.60;0.20;;;8.00;99.90;;;;;;5053972;28;20425;-85
2021/01/22 05:00:55;;;;;;;2.50;0.20;;;7.80;99.90;;;;;;5055124;28;20837;-86
2021/01/22 05:03:26;;;;;;;0.30;0.20;;;7.60;99.90;;;;;;5055056;28;20415;-86
2021/01/22 05:05:53;;;;;;;1.07;0.20;;;7.50;99.90;;;;;;5053824;28;20470;-86
2021/01/22 05:08:19;;;;;;;0.30;0.30;;;7.20;99.90;;;;;;5053914;28;20428;-86
2021/01/22 05:10:44;;;;;;;1.70;0.20;;;7.00;99.90;;;;;;5054690;28;21033;-85
2021/01/22 05:13:10;;;;;;;1.40;0.20;;;6.60;99.90;;;;;;5053912;28;20451;-86
2021/01/22 05:15:35;;;;;;;0.87;0.20;;;6.30;99.90;;;;;;5054937;28;20641;-84
2021/01/22 05:18:05;;;;;;;0.30;0.20;;;6.20;99.90;;;;;;5053533;28;20184;-85
2021/01/22 05:20:39;;;;;;;0.40;0.20;;;5.90;99.90;;;;;;5053420;28;20177;-84
2021/01/22 05:23:07;;;;;;;0.37;0.20;;;5.70;99.90;;;;;;5056376;28;20419;-84
2021/01/22 05:25:34;;;;;;;0.30;0.20;;;5.60;99.90;;;;;;5049719;28;20460;-86
2021/01/22 05:28:00;;;;;;;0.50;0.20;;;5.50;99.90;;;;;;5052334;28;20445;-84
2021/01/22 05:30:29;;;;;;;0.40;0.20;;;5.40;99.90;;;;;;5053098;28;20432;-85
2021/01/22 05:33:16;;;;;;;0.30;0.20;;;5.40;99.90;;;;;;5050203;28;20439;-84
2021/01/22 05:35:42;;;;;;;1.63;0.20;;;5.30;99.90;;;;;;5035129;28;20416;-85
2021/01/22 05:38:07;;;;;;;1.90;0.33;;;5.30;99.90;;;;;;5050142;28;20421;-85
2021/01/22 05:40:33;;;;;;;0.60;0.20;;;5.30;99.90;;;;;;5033036;28;20802;-85
2021/01/22 05:42:59;;;;;;;1.07;0.37;;;5.30;99.90;;;;;;5034777;28;20171;-85
2021/01/22 05:45:41;;;;;;;0.40;0.20;;;5.20;99.90;;;;;;5034379;28;20201;-85
2021/01/22 05:48:23;;;;;;;0.40;0.30;;;5.20;99.90;;;;;;5050214;28;20803;-86
2021/01/22 05:50:59;;;;;;;1.13;0.20;;;5.20;99.90;;;;;;5033659;28;20424;-86
2021/01/22 05:53:26;;;;;;;1.47;0.60;;;5.10;99.90;;;;;;5050660;28;20412;-85
2021/01/22 05:56:08;;;;;;;0.83;0.30;;;5.10;99.90;;;;;;5033508;28;20999;-86
2021/01/22 05:58:35;;;;;;;0.93;0.40;;;5.10;99.90;;;;;;5049614;28;20429;-85
2021/01/22 06:01:14;;;;;;;0.80;0.43;;;5.10;99.90;;;;;;5034374;28;20413;-85
2021/01/22 06:03:42;;;;;;;0.70;0.53;;;5.00;99.90;;;;;;5032687;28;21065;-85
2021/01/22 06:06:10;;;;;;;1.47;0.73;;;4.90;99.90;;;;;;5049457;28;20496;-85
2021/01/22 06:08:57;;;;;;;0.77;0.60;;;5.00;99.90;;;;;;5050425;28;20955;-85
2021/01/22 06:11:25;;;;;;;1.47;0.60;;;4.90;99.90;;;;;;5053606;28;20871;-85
2021/01/22 06:13:52;;;;;;;1.70;1.07;;;5.10;99.90;;;;;;5035879;28;20920;-84
2021/01/22 06:16:25;;;;;;;1.20;0.40;;;5.00;99.90;;;;;;5035899;28;20415;-85
2021/01/22 06:18:58;;;;;;;1.23;0.63;;;5.00;99.90;;;;;;5054169;28;20495;-91
2021/01/22 06:21:40;;;;;;;0.80;0.50;;;4.90;99.90;;;;;;5054675;28;20570;-86
2021/01/22 06:24:06;;;;;;;2.10;0.80;;;4.90;99.90;;;;;;5052330;28;20784;-84
2021/01/22 06:26:37;;;;;;;1.13;0.93;;;4.90;99.90;;;;;;5035173;28;20559;-84
2021/01/22 06:29:04;;;;;;;1.30;0.80;;;4.90;99.90;;;;;;5035526;28;20963;-84
2021/01/22 06:31:31;;;;;;;0.97;0.60;;;4.90;99.90;;;;;;5035462;28;20412;-84
2021/01/22 06:33:58;;;;;;;0.97;0.30;;;4.90;99.90;;;;;;5035547;28;20421;-84
2021/01/22 06:36:25;;;;;;;1.33;0.67;;;4.90;99.90;;;;;;5053043;28;20478;-85
2021/01/22 06:38:51;;;;;;;1.37;0.60;;;4.90;99.90;;;;;;5053289;28;20420;-84
2021/01/22 06:41:22;;;;;;;1.97;0.60;;;4.90;99.90;;;;;;5035205;28;20939;-84
2021/01/22 06:43:48;;;;;;;2.03;0.57;;;5.00;99.90;;;;;;5035256;28;20420;-84
2021/01/22 06:46:16;;;;;;;0.83;0.53;;;5.00;99.90;;;;;;5053214;28;20494;-84
2021/01/22 06:48:55;;;;;;;2.97;0.97;;;5.00;99.90;;;;;;5035584;28;20264;-85
2021/01/22 06:51:23;;;;;;;1.70;0.83;;;5.00;99.90;;;;;;5035551;28;20429;-84
2021/01/22 06:54:11;;;;;;;2.70;1.07;;;5.00;99.90;;;;;;5035106;28;20443;-84
2021/01/22 06:56:49;;;;;;;1.80;1.03;;;5.00;99.90;;;;;;5052584;28;20517;-84
2021/01/22 06:59:20;;;;;;;1.40;1.17;;;4.90;99.90;;;;;;5052700;28;20804;-86
2021/01/22 07:01:47;;;;;;;1.60;0.90;;;4.90;99.90;;;;;;5053160;28;20760;-85
2021/01/22 07:04:42;;;;;;;1.60;1.47;;;4.80;99.90;;;;;;5035259;28;20478;-85
2021/01/22 07:07:08;;;;;;;2.53;1.63;;;4.80;99.90;;;;;;5051636;28;20476;-84
2021/01/22 07:09:44;;;;;;;2.20;1.77;;;4.80;99.90;;;;;;5052426;28;20942;-85
2021/01/22 07:12:14;;;;;;;2.70;1.50;;;4.80;99.90;;;;;;5051479;28;20518;-85
2021/01/22 07:14:44;;;;;;;3.20;2.20;;;4.80;99.90;;;;;;5038349;28;20416;-84
2021/01/22 07:17:30;;;;;;;3.63;1.70;;;4.80;99.90;;;;;;5058280;28;20455;-85
2021/01/22 07:20:08;;;;;;;3.23;2.30;;;4.90;99.90;;;;;;5041609;28;20431;-84
2021/01/22 07:23:00;;;;;;;4.77;2.67;;;4.80;99.90;;;;;;5041617;28;20427;-85
2021/01/22 07:25:44;;;;;;;4.70;3.00;;;4.80;99.90;;;;;;5040710;28;20424;-84
2021/01/22 07:28:12;;;;;;;4.10;2.73;;;4.80;99.90;;;;;;5040944;28;20951;-84
2021/01/22 07:30:42;;;;;;;4.10;3.00;;;4.90;99.90;;;;;;5058135;28;20926;-84
2021/01/22 07:33:26;;;;;;;5.10;2.60;;;4.80;99.90;;;;;;5041405;28;20423;-91
2021/01/22 07:36:07;;;;;;;4.57;4.17;;;4.80;99.90;;;;;;5058136;28;20419;-85
2021/01/22 07:38:34;;;;;;;5.50;3.87;;;4.80;99.90;;;;;;5058015;28;20423;-84
2021/01/22 07:40:59;;;;;;;6.07;4.27;;;4.80;99.90;;;;;;5029837;28;20813;-87
2021/01/22 07:43:26;;;;;;;4.63;3.40;;;4.80;99.90;;;;;;5057895;28;20426;-85
2021/01/22 07:46:12;;;;;;;4.47;3.27;;;4.80;99.90;;;;;;5041222;28;20673;-86
2021/01/22 07:48:40;;;;;;;3.73;2.60;;;4.90;99.90;;;;;;5058394;28;20431;-84
2021/01/22 07:51:30;;;;;;;6.43;3.47;;;4.90;99.90;;;;;;5059329;28;20423;-84
2021/01/22 07:53:57;;;;;;;4.80;3.60;;;5.00;99.90;;;;;;5059688;28;20408;-84
2021/01/22 07:56:31;;;;;;;7.80;4.27;;;5.00;99.90;;;;;;5040952;28;20828;-84
2021/01/22 07:58:56;;;;;;;4.00;2.80;;;5.00;99.90;;;;;;5059079;28;20454;-84
2021/01/22 08:01:24;;;;;;;5.50;3.57;;;5.10;99.90;;;;;;5057997;28;20455;-84
2021/01/22 08:03:50;;;;;;;4.00;2.70;;;5.10;99.90;;;;;;5059339;28;20182;-84
2021/01/22 08:06:16;;;;;;;3.40;2.10;;;5.10;99.90;;;;;;5059176;28;20475;-85
2021/01/22 08:08:41;;;;;;;4.07;3.67;;;5.20;99.90;;;;;;5059428;28;20162;-84
2021/01/22 08:11:19;;;;;;;4.80;2.37;;;5.20;99.90;;;;;;5060017;28;20319;-85
2021/01/22 08:13:45;;;;;;;6.27;3.27;;;5.20;99.90;;;;;;5041792;28;20165;-84
2021/01/22 08:16:11;;;;;;;5.97;2.83;;;5.20;99.90;;;;;;5059307;28;20419;-86
2021/01/22 08:18:43;;;;;;;5.80;3.30;;;5.30;99.90;;;;;;5041231;28;20633;-84
2021/01/22 08:21:09;;;;;;;5.07;3.00;;;5.30;99.90;;;;;;5059139;28;20431;-85
2021/01/22 08:23:35;;;;;;;5.37;3.00;;;5.40;99.90;;;;;;5059340;28;20405;-85
2021/01/22 08:26:01;;;;;;;7.00;3.90;;;5.40;99.90;;;;;;5055559;28;20566;-85
2021/01/22 08:28:27;;;;;;;6.27;3.30;;;5.50;99.90;;;;;;5038019;28;20547;-85
2021/01/22 08:30:53;;;;;;;4.67;2.70;;;5.60;99.90;;;;;;5054928;28;20400;-86
2021/01/22 08:33:19;;;;;;;4.93;2.67;;;5.50;99.90;;;;;;5037938;28;20483;-85
2021/01/22 08:35:45;;;;;;;7.30;4.77;;;5.50;99.90;;;;;;5037949;28;20451;-86
2021/01/22 08:38:15;;;;;;;8.10;4.73;;;5.50;99.90;;;;;;5056661;28;20438;-85
2021/01/22 08:40:44;;;;;;;8.23;4.90;;;5.60;99.90;;;;;;5037739;28;20416;-85
2021/01/22 08:43:09;;;;;;;8.77;4.27;;;5.50;99.90;;;;;;5055728;28;20440;-86
2021/01/22 08:45:38;;;;;;;7.50;3.73;;;5.60;99.90;;;;;;5055535;28;20467;-86
2021/01/22 08:48:04;;;;;;;8.10;3.60;;;5.60;99.90;;;;;;5038000;28;20204;-85
2021/01/22 08:50:30;;;;;;;6.83;3.80;;;5.60;99.90;;;;;;5055594;28;20409;-85
2021/01/22 08:53:10;;;;;;;6.47;3.20;;;5.60;99.90;;;;;;5055365;28;20821;-85
2021/01/22 08:55:37;;;;;;;4.87;4.03;;;5.60;99.90;;;;;;5036981;28;20177;-85
2021/01/22 08:58:09;;;;;;;5.20;3.30;;;5.60;99.90;;;;;;5055433;28;20431;-86
2021/01/22 09:00:35;;;;;;;5.90;3.50;;;5.60;99.90;;;;;;5037356;28;20412;-87
2021/01/22 09:03:02;;;;;;;6.00;4.30;;;5.60;99.90;;;;;;5055218;28;20511;-84
2021/01/22 09:05:27;;;;;;;8.03;3.40;;;5.60;99.90;;;;;;5037276;28;20412;-85
2021/01/22 09:08:08;;;;;;;9.43;3.90;;;5.70;99.90;;;;;;5055352;28;20473;-85
2021/01/22 09:10:34;;;;;;;7.40;3.47;;;5.70;99.90;;;;;;5054652;28;20455;-86
2021/01/22 09:13:09;;;;;;;6.13;3.63;;;5.80;99.90;;;;;;5054994;28;20423;-85
2021/01/22 09:15:35;;;;;;;5.87;3.47;;;5.90;99.90;;;;;;5053649;28;20427;-85
2021/01/22 09:18:00;;;;;;;6.90;3.50;;;5.90;99.90;;;;;;5037379;28;20424;-85
2021/01/22 09:20:28;;;;;;;5.77;3.97;;;6.00;99.90;;;;;;5054258;28;20496;-85
2021/01/22 09:22:55;;;;;;;6.10;3.70;;;6.10;99.90;;;;;;5055084;28;20174;-84
2021/01/22 09:25:24;;;;;;;6.90;4.07;;;6.20;99.90;;;;;;5053241;28;20804;-85
2021/01/22 09:27:50;;;;;;;7.63;4.30;;;6.40;99.90;;;;;;5054657;28;20442;-86
2021/01/22 09:30:18;;;;;;;4.83;3.37;;;6.50;99.90;;;;;;5054693;28;20409;-85
2021/01/22 09:32:45;;;;;;;3.23;2.67;;;;;;;;;;5054638;28;20413;-84
2021/01/22 09:35:12;;;;;;;6.00;3.83;;;6.60;99.90;;;;;;5054908;28;20400;-86
2021/01/22 09:37:37;;;;;;;5.53;3.53;;;6.60;99.90;;;;;;5054555;28;20416;-85
2021/01/22 09:40:04;;;;;;;6.93;3.67;;;6.40;99.90;;;;;;5053661;28;20830;-84
2021/01/22 09:42:30;;;;;;;5.23;4.27;;;6.40;99.90;;;;;;5055219;28;20177;-84
2021/01/22 09:44:56;;;;;;;5.50;3.70;;;6.30;99.90;;;;;;5054542;28;20420;-85
2021/01/22 09:47:21;;;;;;;6.20;3.90;;;6.30;99.90;;;;;;5054669;28;20346;-84
2021/01/22 09:49:47;;;;;;;8.27;4.20;;;6.30;99.90;;;;;;5054882;28;20627;-85
2021/01/22 09:52:14;;;;;;;8.50;4.60;;;6.40;99.90;;;;;;5054794;28;20177;-85
2021/01/22 09:54:40;;;;;;;6.17;3.77;;;6.50;99.90;;;;;;5054402;28;20166;-85
2021/01/22 09:57:06;;;;;;;4.63;3.57;;;6.70;99.90;;;;;;5055761;28;20893;-84
2021/01/22 09:59:31;;;;;;;5.50;3.30;;;7.00;99.90;;;;;;5054282;28;20467;-85
2021/01/22 10:01:57;;;;;;;6.30;4.20;;;7.20;99.90;;;;;;5055058;28;20181;-85
2021/01/22 10:04:22;;;;;;;5.00;3.67;;;7.20;99.90;;;;;;5055681;28;20582;-87
2021/01/22 10:06:48;;;;;;;5.17;4.40;;;7.20;99.90;;;;;;5054093;28;20240;-89
2021/01/22 10:09:14;;;;;;;5.10;3.47;;;7.30;99.90;;;;;;5055221;28;20674;-87
2021/01/22 10:11:40;;;;;;;7.63;4.07;;;7.50;99.90;;;;;;5053989;28;20649;-90
2021/01/22 10:14:07;;;;;;;6.93;4.10;;;7.80;99.90;;;;;;5054188;28;20173;-86
2021/01/22 10:16:33;;;;;;;5.00;3.67;;;8.10;99.90;;;;;;5055044;28;20427;-90
2021/01/22 10:19:00;;;;;;;10.23;3.63;;;8.60;99.90;;;;;;5060633;28;20422;-88
2021/01/22 10:21:26;;;;;;;5.03;2.67;;;9.40;99.90;;;;;;5041607;28;20430;-89
2021/01/22 10:23:52;;;;;;;4.40;2.37;;;10.20;99.90;;;;;;5062478;28;20415;-87
2021/01/22 10:26:20;;;;;;;6.53;2.43;;;10.50;99.90;;;;;;5054718;28;20219;-87
2021/01/22 10:28:46;;;;;;;4.10;3.23;;;10.80;99.90;;;;;;5054139;28;20424;-87
2021/01/22 10:31:12;;;;;;;4.50;3.07;;;10.90;99.90;;;;;;5038454;28;20926;-91
2021/01/22 10:33:38;;;;;;;6.03;3.67;;;10.70;99.90;;;;;;5056196;28;20422;-91
2021/01/22 10:36:05;;;;;;;4.67;2.90;;;10.70;99.90;;;;;;5055347;28;20418;-86
2021/01/22 10:38:31;;;;;;;5.50;3.10;;;10.10;99.90;;;;;;5049486;28;20191;-87
2021/01/22 10:40:57;;;;;;;5.47;3.73;;;9.50;99.90;;;;;;5052213;28;20424;-87
2021/01/22 10:43:24;;;;;;;6.37;3.60;;;9.00;99.90;;;;;;5053543;28;20445;-90
2021/01/22 10:45:50;;;;;;;4.83;4.30;;;8.50;99.90;;;;;;5035475;28;20471;-86
2021/01/22 10:48:16;;;;;;;5.63;3.37;;;8.20;99.90;;;;;;5035705;28;21013;-86
2021/01/22 10:50:42;;;;;;;8.00;3.73;;;8.10;99.90;;;;;;5030706;28;20453;-90
2021/01/22 10:53:08;;;;;;;6.37;3.97;;;7.80;99.90;;;;;;5033055;28;20432;-84
2021/01/22 10:55:34;;;;;;;6.07;3.43;;;7.50;99.90;;;;;;5034352;28;20692;-90
2021/01/22 10:57:59;;;;;;;5.97;2.97;;;7.40;99.90;;;;;;5054147;28;20185;-87
2021/01/22 11:00:32;;;;;;;3.07;2.43;;;7.30;99.90;;;;;;5053157;28;20192;-84
2021/01/22 11:02:58;;;;;;;5.63;3.63;;;7.30;99.90;;;;;;5051071;28;20203;-87
2021/01/22 11:05:24;;;;;;;4.70;3.10;;;7.40;99.90;;;;;;5036271;28;20484;-87
2021/01/22 11:07:50;;;;;;;4.70;3.90;;;7.40;99.90;;;;;;5033423;28;20440;-90
2021/01/22 11:10:16;;;;;;;7.60;3.63;;;7.40;99.90;;;;;;5111156;22;20241;-89
2021/01/22 11:12:41;;;;;;;3.73;3.43;;;7.40;99.90;;;;;;5055161;28;20181;-87
2021/01/22 11:15:08;;;;;;;6.60;3.03;;;7.40;99.90;;;;;;5054963;28;20446;-87
2021/01/22 11:17:33;;;;;;;4.97;3.13;;;7.40;99.90;;;;;;5053882;28;20173;-83
2021/01/22 11:20:02;;;;;;;4.20;2.50;;;7.40;99.90;;;;;;5057292;28;20438;-85
2021/01/22 11:22:29;;;;;;;8.10;3.93;;;7.30;99.90;;;;;;5066279;28;20272;-85
2021/01/22 11:24:54;;;;;;;5.33;2.60;;;7.30;99.90;;;;;;5060543;28;20777;-86
2021/01/22 11:27:20;;;;;;;5.90;2.73;;;7.40;99.90;;;;;;5039931;28;20472;-85
2021/01/22 11:29:46;;;;;;;4.53;3.80;;;7.40;99.90;;;;;;5032796;28;20166;-84
2021/01/22 11:32:11;;;;;;;4.33;3.60;;;7.40;99.90;;;;;;5038845;28;20173;-83
2021/01/22 11:34:37;;;;;;;7.33;3.87;;;7.40;99.90;;;;;;5052890;28;20177;-83
2021/01/22 11:37:03;;;;;;;4.30;2.77;;;7.40;99.90;;;;;;5050518;28;20182;-85
2021/01/22 11:39:30;;;;;;;5.03;3.47;;;7.40;99.90;;;;;;5056736;28;20634;-86
2021/01/22 11:41:57;;;;;;;5.10;2.90;;;7.50;99.90;;;;;;5052438;28;20263;-91
2021/01/22 11:44:22;;;;;;;7.53;3.10;;;7.50;99.90;;;;;;5072240;28;20628;-85
2021/01/22 11:46:48;;;;;;;4.60;3.00;;;7.50;99.90;;;;;;5074197;28;20521;-91
2021/01/22 11:49:13;;;;;;;7.50;3.43;;;7.60;99.90;;;;;;5073698;28;20173;-89
2021/01/22 11:51:39;;;;;;;6.53;2.73;;;7.70;99.90;;;;;;5072244;28;20208;-91
2021/01/22 11:54:05;;;;;;;6.60;3.50;;;7.90;99.90;;;;;;5055087;28;20659;-87
2021/01/22 11:56:31;;;;;;;4.43;2.67;;;7.90;99.90;;;;;;5045312;28;20174;-86
2021/01/22 11:58:58;;;;;;;2.90;2.43;;;7.90;99.90;;;;;;5042075;28;20177;-89
2021/01/22 12:01:24;;;;;;;3.80;2.80;;;7.80;99.90;;;;;;5057633;28;20432;-92
2021/01/22 12:03:51;;;;;;;4.73;4.23;;;7.70;99.90;;;;;;5058246;28;20424;-89
2021/01/22 12:06:16;;;;;;;3.90;2.37;;;7.60;99.90;;;;;;5042688;28;20470;-88
2021/01/22 12:08:42;;;;;;;4.00;1.93;;;7.60;99.90;;;;;;5056981;28;20804;-88
2021/01/22 12:11:07;;;;;;;5.30;2.73;;;7.60;99.90;;;;;;5054701;28;20701;-89
2021/01/22 12:13:33;;;;;;;5.60;2.90;;;7.60;99.90;;;;;;5052551;28;20182;-89
2021/01/22 12:15:59;;;;;;;5.03;3.20;;;7.50;99.90;;;;;;5063638;28;20181;-92
2021/01/22 12:18:24;;;;;;;4.37;2.50;;;7.70;99.90;;;;;;5058517;28;20177;-89
2021/01/22 12:20:50;;;;;;;2.90;2.60;;;7.90;99.90;;;;;;5061458;28;20207;-92
2021/01/22 12:23:18;;;;;;;6.00;2.40;;;8.20;99.90;;;;;;5059137;28;20655;-87
2021/01/22 12:25:46;;;;;;;6.43;2.50;;;8.60;99.90;;;;;;5056486;28;20178;-93
2021/01/22 12:28:16;;;;;;;4.63;2.70;;;9.30;99.90;;;;;;5055829;28;20448;-88
2021/01/22 12:30:42;;;;;;;7.33;2.30;;;10.00;99.90;;;;;;5058619;28;20416;-91
2021/01/22 12:33:08;;;;;;;4.90;2.67;;;10.40;99.90;;;;;;5053011;28;20419;-93
2021/01/22 12:35:34;;;;;;;4.93;2.43;;;10.30;99.90;;;;;;5060650;28;20428;-91
2021/01/22 12:37:59;;;;;;;3.90;1.90;;;9.80;99.90;;;;;;5056964;28;20189;-92
2021/01/22 12:40:26;;;;;;;4.00;2.17;;;9.80;99.90;;;;;;5062134;28;20176;-91
2021/01/22 12:42:51;;;;;;;3.77;1.73;;;10.10;99.90;;;;;;5063741;28;20441;-92
2021/01/22 12:45:18;;;;;;;3.67;2.53;;;10.20;99.90;;;;;;5066636;28;20183;-91
2021/01/22 12:47:44;;;;;;;4.20;2.70;;;10.00;99.90;;;;;;5064374;28;20214;-93
2021/01/22 12:50:10;;;;;;;3.97;2.37;;;10.00;99.90;;;;;;5059172;28;20433;-93
2021/01/22 12:52:38;;;;;;;3.50;1.73;;;10.10;99.90;;;;;;5055719;28;20186;-94
2021/01/22 12:55:06;;;;;;;6.53;2.53;;;10.60;99.90;;;;;;5042661;28;20426;-95
2021/01/22 12:57:32;;;;;;;4.57;2.83;;;10.60;99.90;;;;;;5041687;28;20452;-94
2021/01/22 12:59:58;;;;;;;11.27;3.43;;;10.60;99.90;;;;;;5056184;28;20454;-83
2021/01/22 13:03:17;;;;;;;7.47;2.57;;;10.30;99.90;;;;;;5051436;28;20786;-86